Time;durP1;ratioP1;P1;durP2;ratioP2;P2;SDS_P1;SDS_P2;PMS_P1;PMS_P2;Temp;Humidity;BMP_temperature;BMP_pressure;BME280_temperature;BME280_humidity;BME280_pressure;Samples;Min_cycle;Max_cycle;Signal;HPM_P1;HPM_P2
2023/04/09 00:02:22;;;;;;;5.93;5.32;;;;;;;;;;4969198;28;58822;-66
2023/04/09 00:04:47;;;;;;;5.45;4.80;;;;;;;;;;4969799;28;58537;-67
2023/04/09 00:07:12;;;;;;;6.20;5.55;;;;;;;;;;4970546;28;57872;-67
2023/04/09 00:09:38;;;;;;;5.47;4.83;;;;;;;;;;4966741;28;58681;-67
2023/04/09 00:12:03;;;;;;;5.30;4.57;;;;;;;;;;4966528;28;58193;-66
2023/04/09 00:14:28;;;;;;;5.57;4.97;;;;;;;;;;4969478;28;57767;-66
2023/04/09 00:16:53;;;;;;;5.57;5.07;;;;;;;;;;4973022;28;58827;-67
2023/04/09 00:19:18;;;;;;;5.67;5.07;;;;;;;;;;4961054;28;58259;-67
2023/04/09 00:21:43;;;;;;;5.37;4.87;;;;;;;;;;4969974;28;58431;-67
2023/04/09 00:24:09;;;;;;;6.10;4.97;;;;;;;;;;4970297;28;58430;-67
2023/04/09 00:26:34;;;;;;;6.57;5.90;;;;;;;;;;4964760;28;58629;-68
2023/04/09 00:28:59;;;;;;;6.15;5.40;;;;;;;;;;4971940;28;58842;-67
2023/04/09 00:31:25;;;;;;;5.40;4.87;;;;;;;;;;4961628;28;58963;-67
2023/04/09 00:33:50;;;;;;;5.50;5.00;;;;;;;;;;4968045;28;58314;-67
2023/04/09 00:36:15;;;;;;;5.40;4.90;;;;;;;;;;4968198;28;58722;-67
2023/04/09 00:38:40;;;;;;;6.70;5.40;;;;;;;;;;4966736;28;58598;-67
2023/04/09 00:41:05;;;;;;;6.35;5.70;;;;;;;;;;4969975;28;58989;-67
2023/04/09 00:43:30;;;;;;;6.13;5.33;;;;;;;;;;4965006;28;58940;-66
2023/04/09 00:45:57;;;;;;;5.70;5.18;;;;;;;;;;4965020;28;58984;-67
2023/04/09 00:48:22;;;;;;;4.93;4.50;;;;;;;;;;4969014;28;58397;-67
2023/04/09 00:50:47;;;;;;;5.70;5.17;;;;;;;;;;4969496;28;58508;-67
2023/04/09 00:53:13;;;;;;;5.15;4.65;;;;;;;;;;4968581;28;58417;-66
2023/04/09 00:55:38;;;;;;;5.88;4.75;;;;;;;;;;4971633;28;58778;-67
2023/04/09 00:58:03;;;;;;;5.00;4.53;;;;;;;;;;4968419;28;58922;-66
2023/04/09 01:00:29;;;;;;;5.23;4.57;;;;;;;;;;4971240;28;58563;-67
2023/04/09 01:02:57;;;;;;;4.87;4.47;;;;;;;;;;4973566;28;59194;-67
2023/04/09 01:05:28;;;;;;;5.75;5.15;;;;;;;;;;4967044;28;58556;-67
2023/04/09 01:08:11;;;;;;;5.00;4.50;;;;;;;;;;4965731;28;58832;-66
2023/04/09 01:10:41;;;;;;;5.47;4.75;;;;;;;;;;4964389;28;58445;-66
2023/04/09 01:13:07;;;;;;;5.53;5.00;;;;;;;;;;4965054;28;58569;-66
2023/04/09 01:15:35;;;;;;;5.10;4.53;;;;;;;;;;4971915;28;58951;-67
2023/04/09 01:18:05;;;;;;;6.25;5.68;;;;;;;;;;4964308;28;58373;-67
2023/04/09 01:20:33;;;;;;;6.60;5.22;;;;;;;;;;4970327;28;58545;-67
2023/04/09 01:22:58;;;;;;;;;;;;;;;;;;4969904;28;58836;-67
2023/04/09 01:25:26;;;;;;;6.55;5.75;;;;;;;;;;4973698;28;58650;-67
2023/04/09 01:28:12;;;;;;;5.75;5.25;;;;;;;;;;4965822;28;58755;-67
2023/04/09 01:30:37;;;;;;;4.93;4.47;;;;;;;;;;4967839;28;63278;-67
2023/04/09 01:33:04;;;;;;;6.05;5.22;;;;;;;;;;4967585;28;58319;-66
2023/04/09 01:35:29;;;;;;;5.60;5.03;;;;;;;;;;4970973;28;58743;-67
2023/04/09 01:37:55;;;;;;;6.05;5.45;;;;;;;;;;4962449;28;58648;-67
2023/04/09 01:40:20;;;;;;;5.57;4.85;;;;;;;;;;4969168;28;59344;-67
2023/04/09 01:42:46;;;;;;;5.37;4.90;;;;;;;;;;4974178;28;58318;-66
2023/04/09 01:45:12;;;;;;;6.03;5.10;;;;;;;;;;4966639;28;58704;-66
2023/04/09 01:47:38;;;;;;;5.10;4.68;;;;;;;;;;4969982;28;58758;-67
2023/04/09 01:50:03;;;;;;;5.55;5.05;;;;;;;;;;4969632;28;58385;-66
2023/04/09 01:52:28;;;;;;;6.68;5.45;;;;;;;;;;4968556;28;58865;-67
2023/04/09 01:54:53;;;;;;;6.40;4.90;;;;;;;;;;4972710;28;58869;-67
2023/04/09 01:57:18;;;;;;;6.43;5.65;;;;;;;;;;4969335;28;58430;-66
2023/04/09 01:59:43;;;;;;;5.10;4.50;;;;;;;;;;4963704;28;58320;-67
2023/04/09 02:02:10;;;;;;;6.68;4.60;;;;;;;;;;4970115;28;58340;-67
2023/04/09 02:04:39;;;;;;;5.53;5.03;;;;;;;;;;4972353;28;57954;-66
2023/04/09 02:07:10;;;;;;;5.72;5.15;;;;;;;;;;4968887;28;58371;-67
2023/04/09 02:09:37;;;;;;;5.60;4.45;;;;;;;;;;4971205;28;63455;-67
2023/04/09 02:12:04;;;;;;;5.80;5.20;;;;;;;;;;4965976;28;58691;-66
2023/04/09 02:14:31;;;;;;;6.32;5.68;;;;;;;;;;4970233;28;58739;-67
2023/04/09 02:16:56;;;;;;;5.65;5.15;;;;;;;;;;4972000;28;58819;-67
2023/04/09 02:19:21;;;;;;;6.03;5.47;;;;;;;;;;4967134;28;59157;-67
2023/04/09 02:21:46;;;;;;;6.72;6.03;;;;;;;;;;4969468;28;58567;-66
2023/04/09 02:24:11;;;;;;;5.27;4.80;;;;;;;;;;4967346;28;58557;-67
2023/04/09 02:26:37;;;;;;;6.57;5.35;;;;;;;;;;4972652;28;58470;-67
2023/04/09 02:29:02;;;;;;;6.03;5.30;;;;;;;;;;4969996;28;58421;-66
2023/04/09 02:31:27;;;;;;;5.20;4.72;;;;;;;;;;4973113;28;58874;-67
2023/04/09 02:33:53;;;;;;;6.57;5.97;;;;;;;;;;4973119;28;58710;-67
2023/04/09 02:36:18;;;;;;;5.30;4.80;;;;;;;;;;4973346;28;59356;-67
2023/04/09 02:38:43;;;;;;;6.03;5.40;;;;;;;;;;4972617;28;58307;-66
2023/04/09 02:41:08;;;;;;;6.53;5.93;;;;;;;;;;4969110;28;58121;-66
2023/04/09 02:43:33;;;;;;;6.40;5.37;;;;;;;;;;4969306;28;58503;-67
2023/04/09 02:45:58;;;;;;;6.25;5.60;;;;;;;;;;4970504;28;58758;-67
2023/04/09 02:48:24;;;;;;;5.28;4.78;;;;;;;;;;4968910;28;58883;-67
2023/04/09 02:50:49;;;;;;;5.47;4.97;;;;;;;;;;4969833;28;58599;-66
2023/04/09 02:53:14;;;;;;;4.60;4.20;;;;;;;;;;4971969;28;58275;-67
2023/04/09 02:55:39;;;;;;;5.57;5.07;;;;;;;;;;4969102;28;59065;-67
2023/04/09 02:58:04;;;;;;;5.73;4.83;;;;;;;;;;4973937;28;58674;-66
2023/04/09 03:00:30;;;;;;;5.23;4.73;;;;;;;;;;4973764;28;58347;-67
2023/04/09 03:02:55;;;;;;;5.47;4.90;;;;;;;;;;4970869;28;58827;-67
2023/04/09 03:05:20;;;;;;;5.95;5.35;;;;;;;;;;4970308;28;58292;-67
2023/04/09 03:07:46;;;;;;;5.77;5.20;;;;;;;;;;4974802;28;60033;-67
2023/04/09 03:10:11;;;;;;;6.07;5.47;;;;;;;;;;4971646;28;58438;-67
2023/04/09 03:12:36;;;;;;;5.80;5.03;;;;;;;;;;4974812;28;58805;-67
2023/04/09 03:15:01;;;;;;;6.18;5.57;;;;;;;;;;4968548;28;58722;-67
2023/04/09 03:17:26;;;;;;;4.90;4.47;;;;;;;;;;4974326;28;58570;-67
2023/04/09 03:19:52;;;;;;;6.10;5.57;;;;;;;;;;4977194;28;58449;-67
2023/04/09 03:22:17;;;;;;;6.07;5.38;;;;;;;;;;4970844;28;59060;-67
2023/04/09 03:24:42;;;;;;;6.22;5.07;;;;;;;;;;4973216;28;58737;-67
2023/04/09 03:27:07;;;;;;;5.77;5.17;;;;;;;;;;4966522;28;58772;-67
2023/04/09 03:29:32;;;;;;;5.35;4.88;;;;;;;;;;4977641;28;58587;-67
2023/04/09 03:31:58;;;;;;;5.60;5.00;;;;;;;;;;4970803;28;58487;-67
2023/04/09 03:34:23;;;;;;;5.00;4.55;;;;;;;;;;4970927;28;61045;-67
2023/04/09 03:36:48;;;;;;;5.72;5.15;;;;;;;;;;4968267;28;58672;-67
2023/04/09 03:39:13;;;;;;;5.60;5.10;;;;;;;;;;4968464;28;58018;-67
2023/04/09 03:41:39;;;;;;;5.00;4.53;;;;;;;;;;4972543;28;58742;-67
2023/04/09 03:44:04;;;;;;;5.23;4.73;;;;;;;;;;4972060;28;58417;-66
2023/04/09 03:46:29;;;;;;;5.30;4.80;;;;;;;;;;4971134;28;58324;-67
2023/04/09 03:48:54;;;;;;;6.20;5.10;;;;;;;;;;4970200;28;58600;-67
2023/04/09 03:51:19;;;;;;;6.00;5.40;;;;;;;;;;4968881;28;58615;-67
2023/04/09 03:53:45;;;;;;;6.10;5.25;;;;;;;;;;4975213;28;58606;-67
2023/04/09 03:56:10;;;;;;;5.93;4.73;;;;;;;;;;4966581;28;58336;-67
2023/04/09 03:58:35;;;;;;;4.70;4.27;;;;;;;;;;4973870;28;58813;-67
2023/04/09 04:01:00;;;;;;;6.20;5.15;;;;;;;;;;4966073;28;58993;-66
2023/04/09 04:03:26;;;;;;;4.50;4.00;;;;;;;;;;4970694;28;58776;-67
2023/04/09 04:05:51;;;;;;;5.73;4.87;;;;;;;;;;4976229;28;58753;-67
2023/04/09 04:08:16;;;;;;;4.40;4.00;;;;;;;;;;4971340;28;58440;-67
2023/04/09 04:10:41;;;;;;;5.40;4.90;;;;;;;;;;4974912;28;58690;-67
2023/04/09 04:13:07;;;;;;;6.33;5.67;;;;;;;;;;4968871;28;58440;-67
2023/04/09 04:15:32;;;;;;;4.97;4.25;;;;;;;;;;4972092;28;58400;-67
2023/04/09 04:17:57;;;;;;;5.23;4.73;;;;;;;;;;4971405;28;58918;-66
2023/04/09 04:20:22;;;;;;;5.13;4.70;;;;;;;;;;4968145;28;58767;-67
2023/04/09 04:22:48;;;;;;;5.43;4.77;;;;;;;;;;4963529;28;58490;-66
2023/04/09 04:25:13;;;;;;;5.18;4.68;;;;;;;;;;4973386;28;58139;-67
2023/04/09 04:27:41;;;;;;;4.47;4.07;;;;;;;;;;4974176;28;58870;-67
2023/04/09 04:30:06;;;;;;;;;;;;;;;;;;4970183;28;58756;-67
2023/04/09 04:32:31;;;;;;;4.85;4.40;;;;;;;;;;4968161;28;58833;-66
2023/04/09 04:34:56;;;;;;;5.53;4.80;;;;;;;;;;4972770;28;58723;-66
2023/04/09 04:37:22;;;;;;;5.07;4.57;;;;;;;;;;4973564;28;58995;-67
2023/04/09 04:39:47;;;;;;;6.23;4.33;;;;;;;;;;4969101;28;58420;-67
2023/04/09 04:42:12;;;;;;;5.68;5.18;;;;;;;;;;4971964;28;58805;-67
2023/04/09 04:44:37;;;;;;;5.32;4.82;;;;;;;;;;4963749;28;58894;-66
2023/04/09 04:47:03;;;;;;;5.00;4.45;;;;;;;;;;4971045;28;58841;-67
2023/04/09 04:49:29;;;;;;;5.38;4.68;;;;;;;;;;4972782;28;58735;-67
2023/04/09 04:51:54;;;;;;;4.65;4.22;;;;;;;;;;4977083;28;59930;-67
2023/04/09 04:54:19;;;;;;;4.37;3.97;;;;;;;;;;4965469;28;59219;-67
2023/04/09 04:56:44;;;;;;;5.80;5.20;;;;;;;;;;4976172;28;58490;-67
2023/04/09 04:59:09;;;;;;;5.03;4.53;;;;;;;;;;4967521;28;58736;-66
2023/04/09 05:01:34;;;;;;;5.70;5.00;;;;;;;;;;4975252;28;58735;-67
2023/04/09 05:04:01;;;;;;;5.85;5.25;;;;;;;;;;4969026;28;58757;-67
2023/04/09 05:06:28;;;;;;;4.93;4.43;;;;;;;;;;4973541;28;58746;-67
2023/04/09 05:08:56;;;;;;;4.97;4.03;;;;;;;;;;4973125;28;58341;-66
2023/04/09 05:11:22;;;;;;;5.00;4.53;;;;;;;;;;4970745;28;60167;-67
2023/04/09 05:13:47;;;;;;;4.83;4.37;;;;;;;;;;4971452;28;58636;-67
2023/04/09 05:16:15;;;;;;;5.40;4.53;;;;;;;;;;4966507;28;58274;-67
2023/04/09 05:18:40;;;;;;;4.28;3.88;;;;;;;;;;4973059;28;59809;-67
2023/04/09 05:21:05;;;;;;;5.20;4.70;;;;;;;;;;4969775;28;58687;-67
2023/04/09 05:23:30;;;;;;;4.72;4.32;;;;;;;;;;4974906;28;58562;-67
2023/04/09 05:25:55;;;;;;;4.97;4.30;;;;;;;;;;4967705;28;58813;-67
2023/04/09 05:28:20;;;;;;;5.80;5.00;;;;;;;;;;4974014;28;59324;-67
2023/04/09 05:30:46;;;;;;;4.73;4.33;;;;;;;;;;4972482;28;58442;-67
2023/04/09 05:33:11;;;;;;;4.93;4.53;;;;;;;;;;4967773;28;58824;-67
2023/04/09 05:35:39;;;;;;;5.17;4.03;;;;;;;;;;4966015;28;58576;-67
2023/04/09 05:38:05;;;;;;;5.20;4.68;;;;;;;;;;4978562;28;58326;-67
2023/04/09 05:40:30;;;;;;;5.28;4.72;;;;;;;;;;4971846;28;58516;-67
2023/04/09 05:42:55;;;;;;;6.15;5.55;;;;;;;;;;4971442;28;58342;-67
2023/04/09 05:45:20;;;;;;;4.45;4.05;;;;;;;;;;4971089;28;58301;-67
2023/04/09 05:47:46;;;;;;;5.30;4.65;;;;;;;;;;4962014;28;59569;-67
2023/04/09 05:50:11;;;;;;;5.43;4.78;;;;;;;;;;4977141;28;58532;-67
2023/04/09 05:52:36;;;;;;;4.87;4.47;;;;;;;;;;4977265;28;58418;-67
2023/04/09 05:55:01;;;;;;;5.03;4.50;;;;;;;;;;4975483;28;58394;-66
2023/04/09 05:57:29;;;;;;;5.43;4.88;;;;;;;;;;4967608;28;58409;-67
2023/04/09 05:59:54;;;;;;;5.53;4.80;;;;;;;;;;4973599;28;58094;-66
2023/04/09 06:02:19;;;;;;;5.55;5.05;;;;;;;;;;4971152;28;58787;-67
2023/04/09 06:04:44;;;;;;;4.53;4.10;;;;;;;;;;4970990;28;58829;-67
2023/04/09 06:07:09;;;;;;;5.23;4.53;;;;;;;;;;4966873;28;59561;-67
2023/04/09 06:09:35;;;;;;;5.70;4.87;;;;;;;;;;4975821;28;58515;-67
2023/04/09 06:12:01;;;;;;;5.90;5.30;;;;;;;;;;4964015;28;58477;-67
2023/04/09 06:14:26;;;;;;;4.43;4.03;;;;;;;;;;4964450;28;59198;-67
2023/04/09 06:16:51;;;;;;;5.33;4.83;;;;;;;;;;4966886;28;60660;-67
2023/04/09 06:19:17;;;;;;;6.27;5.10;;;;;;;;;;4969698;28;58497;-67
2023/04/09 06:21:42;;;;;;;6.80;6.10;;;;;;;;;;4969616;28;58498;-67
2023/04/09 06:24:07;;;;;;;10.17;5.83;;;;;;;;;;4975956;28;58869;-67
2023/04/09 06:26:32;;;;;;;7.53;6.50;;;;;;;;;;4974437;28;58694;-67
2023/04/09 06:28:57;;;;;;;7.40;5.82;;;;;;;;;;4972429;28;58460;-67
2023/04/09 06:31:22;;;;;;;5.93;5.33;;;;;;;;;;4978959;28;60264;-67
2023/04/09 06:33:48;;;;;;;6.28;5.47;;;;;;;;;;4985609;28;58715;-67
2023/04/09 06:36:16;;;;;;;6.57;5.70;;;;;;;;;;4979851;28;58605;-67
2023/04/09 06:38:41;;;;;;;6.28;5.65;;;;;;;;;;4977556;28;58925;-66
2023/04/09 06:41:07;;;;;;;7.15;6.03;;;;;;;;;;4972902;28;58594;-67
2023/04/09 06:43:32;;;;;;;5.80;4.43;;;;;;;;;;4976643;28;59107;-66
2023/04/09 06:45:57;;;;;;;12.57;5.40;;;;;;;;;;4976324;28;58498;-67
2023/04/09 06:48:22;;;;;;;7.03;5.28;;;;;;;;;;4977328;28;58796;-67
2023/04/09 06:50:47;;;;;;;7.22;5.00;;;;;;;;;;4970211;28;58634;-67
2023/04/09 06:53:13;;;;;;;9.13;5.83;;;;;;;;;;4976343;28;58642;-67
2023/04/09 06:55:39;;;;;;;6.03;5.15;;;;;;;;;;4978044;28;58849;-67
2023/04/09 06:58:04;;;;;;;5.97;5.40;;;;;;;;;;4975024;28;58689;-66
2023/04/09 07:00:29;;;;;;;5.65;4.50;;;;;;;;;;4975808;28;58860;-67
2023/04/09 07:02:55;;;;;;;7.53;5.30;;;;;;;;;;4968512;28;58788;-66
2023/04/09 07:05:21;;;;;;;4.82;4.32;;;;;;;;;;4977552;28;59018;-67
2023/04/09 07:07:46;;;;;;;7.30;5.15;;;;;;;;;;4974632;28;58381;-67
2023/04/09 07:10:11;;;;;;;8.27;4.82;;;;;;;;;;4979664;28;59857;-67
2023/04/09 07:12:36;;;;;;;7.43;4.93;;;;;;;;;;4967358;28;59564;-66
2023/04/09 07:15:03;;;;;;;5.97;4.83;;;;;;;;;;4976331;28;58917;-67
2023/04/09 07:17:29;;;;;;;5.15;4.68;;;;;;;;;;4973322;28;59840;-67
2023/04/09 07:19:54;;;;;;;6.65;5.68;;;;;;;;;;4977522;28;58654;-67
2023/04/09 07:22:20;;;;;;;6.93;4.93;;;;;;;;;;4966243;28;58906;-67
2023/04/09 07:24:50;;;;;;;6.13;4.43;;;;;;;;;;4973389;28;58460;-66
2023/04/09 07:27:16;;;;;;;5.75;4.30;;;;;;;;;;4974371;28;58600;-66
2023/04/09 07:29:42;;;;;;;5.70;4.40;;;;;;;;;;4980203;28;58252;-67
2023/04/09 07:32:08;;;;;;;5.63;4.60;;;;;;;;;;4974969;28;58837;-67
2023/04/09 07:34:33;;;;;;;10.80;4.32;;;;;;;;;;4969613;28;58711;-67
2023/04/09 07:36:58;;;;;;;8.45;5.13;;;;;;;;;;4977217;28;58835;-67
2023/04/09 07:39:23;;;;;;;7.78;5.20;;;;;;;;;;4975793;28;58541;-68
2023/04/09 07:41:48;;;;;;;11.07;5.83;;;;;;;;;;4972471;28;58990;-68
2023/04/09 07:44:13;;;;;;;6.63;4.35;;;;;;;;;;4978008;28;58615;-68
2023/04/09 07:46:38;;;;;;;6.43;4.28;;;;;;;;;;4975781;28;58102;-68
2023/04/09 07:49:04;;;;;;;8.10;4.20;;;;;;;;;;4972638;28;58423;-67
2023/04/09 07:51:30;;;;;;;9.68;4.57;;;;;;;;;;4972560;28;58325;-72
2023/04/09 07:53:55;;;;;;;4.72;4.05;;;;;;;;;;4976813;28;58583;-74
2023/04/09 07:56:20;;;;;;;14.88;5.18;;;;;;;;;;4973455;28;58350;-73
2023/04/09 07:58:47;;;;;;;5.85;4.47;;;;;;;;;;4978497;28;58279;-67
2023/04/09 08:01:13;;;;;;;10.07;4.40;;;;;;;;;;4972801;28;58772;-71
2023/04/09 08:03:38;;;;;;;11.65;5.15;;;;;;;;;;4978373;28;58784;-67
2023/04/09 08:06:03;;;;;;;12.18;4.95;;;;;;;;;;4971925;28;58384;-66
2023/04/09 08:08:28;;;;;;;8.10;4.43;;;;;;;;;;4976774;28;58307;-66
2023/04/09 08:10:53;;;;;;;5.50;4.47;;;;;;;;;;4973572;28;59235;-68
2023/04/09 08:13:18;;;;;;;7.80;5.17;;;;;;;;;;4976243;28;58788;-67
2023/04/09 08:15:44;;;;;;;4.60;4.03;;;;;;;;;;4973429;28;58929;-66
2023/04/09 08:18:09;;;;;;;9.53;4.80;;;;;;;;;;4972407;28;58566;-67
2023/04/09 08:20:34;;;;;;;8.43;3.60;;;;;;;;;;4975456;28;58473;-66
2023/04/09 08:22:59;;;;;;;5.97;4.03;;;;;;;;;;4967095;28;58326;-66
2023/04/09 08:25:24;;;;;;;7.10;3.53;;;;;;;;;;4970139;28;58728;-66
2023/04/09 08:27:50;;;;;;;30.70;5.87;;;;;;;;;;4965568;28;59313;-67
2023/04/09 08:30:15;;;;;;;5.80;3.95;;;;;;;;;;4967724;28;58565;-66
2023/04/09 08:32:40;;;;;;;5.95;4.00;;;;;;;;;;4971993;28;58818;-66
2023/04/09 08:35:06;;;;;;;7.33;4.70;;;;;;;;;;4971182;28;58567;-66
2023/04/09 08:37:31;;;;;;;3.72;3.42;;;;;;;;;;4962925;28;58383;-66
2023/04/09 08:39:56;;;;;;;5.30;3.83;;;;;;;;;;4970672;28;59060;-67
2023/04/09 08:42:22;;;;;;;4.03;3.63;;;;;;;;;;4972315;28;58334;-66
2023/04/09 08:44:49;;;;;;;4.60;3.70;;;;;;;;;;4970121;28;58745;-67
2023/04/09 08:47:14;;;;;;;4.72;3.88;;;;;;;;;;4967760;28;58690;-66
2023/04/09 08:49:40;;;;;;;4.45;3.25;;;;;;;;;;4965361;28;58650;-66
2023/04/09 08:52:05;;;;;;;6.65;4.25;;;;;;;;;;4967477;28;58448;-66
2023/04/09 08:54:31;;;;;;;6.17;4.13;;;;;;;;;;4969445;28;59138;-66
2023/04/09 08:56:57;;;;;;;4.45;4.05;;;;;;;;;;4969267;28;58873;-67
2023/04/09 08:59:22;;;;;;;5.85;4.45;;;;;;;;;;4964630;28;58611;-66
2023/04/09 09:01:52;;;;;;;5.87;4.27;;;;;;;;;;4970475;28;58825;-66
2023/04/09 09:04:18;;;;;;;8.30;4.10;;;;;;;;;;4970998;28;58731;-67
2023/04/09 09:06:43;;;;;;;4.00;3.60;;;;;;;;;;4970212;28;58468;-66
2023/04/09 09:09:08;;;;;;;5.68;4.97;;;;;;;;;;4970081;28;58745;-66
2023/04/09 09:11:47;;;;;;;4.45;3.58;;;;;;;;;;4966133;28;77906;-67
2023/04/09 09:14:16;;;;;;;5.82;4.07;;;;;;;;;;4975081;28;59449;-66
2023/04/09 09:16:42;;;;;;;4.15;3.75;;;;;;;;;;4974445;28;58590;-66
2023/04/09 09:19:08;;;;;;;5.28;4.63;;;;;;;;;;4974545;28;58391;-66
2023/04/09 09:21:35;;;;;;;5.05;4.18;;;;;;;;;;4968876;28;58699;-66
2023/04/09 09:24:00;;;;;;;7.00;6.30;;;;;;;;;;4974021;28;58605;-67
2023/04/09 09:26:27;;;;;;;8.95;5.57;;;;;;;;;;4978803;28;58272;-67
2023/04/09 09:28:53;;;;;;;12.52;8.10;;;;;;;;;;4969879;28;59579;-67
2023/04/09 09:31:19;;;;;;;10.20;7.18;;;;;;;;;;4978471;28;58535;-67
2023/04/09 09:33:45;;;;;;;11.00;6.25;;;;;;;;;;4971768;28;59194;-67
2023/04/09 09:36:10;;;;;;;12.02;7.05;;;;;;;;;;4971170;28;58455;-67
2023/04/09 09:38:52;;;;;;;7.27;6.30;;;;;;;;;;4970584;28;58726;-67
2023/04/09 09:41:18;;;;;;;8.93;6.47;;;;;;;;;;4974112;28;59376;-67
2023/04/09 09:43:43;;;;;;;11.65;5.78;;;;;;;;;;4967002;28;58260;-67
2023/04/09 09:46:09;;;;;;;8.68;5.45;;;;;;;;;;4977553;28;58685;-67
2023/04/09 09:48:34;;;;;;;8.25;5.10;;;;;;;;;;4977344;28;58883;-67
2023/04/09 09:51:02;;;;;;;9.63;6.77;;;;;;;;;;4976361;28;58502;-67
2023/04/09 09:53:28;;;;;;;9.63;5.63;;;;;;;;;;4970555;28;59961;-67
2023/04/09 09:55:55;;;;;;;7.28;5.72;;;;;;;;;;4972627;28;58699;-67
2023/04/09 09:58:26;;;;;;;8.55;5.70;;;;;;;;;;4979785;28;58433;-67
2023/04/09 10:00:52;;;;;;;11.70;4.80;;;;;;;;;;4974497;28;58217;-66
2023/04/09 10:03:22;;;;;;;5.88;5.05;;;;;;;;;;4968042;28;58623;-67
2023/04/09 10:05:47;;;;;;;8.50;6.03;;;;;;;;;;4973254;28;58431;-67
2023/04/09 10:08:13;;;;;;;7.45;5.43;;;;;;;;;;4978564;28;57836;-67
2023/04/09 10:10:40;;;;;;;10.13;5.00;;;;;;;;;;4973804;28;58638;-67
2023/04/09 10:13:06;;;;;;;7.20;5.13;;;;;;;;;;4972676;28;58345;-67
2023/04/09 10:15:31;;;;;;;9.38;5.93;;;;;;;;;;4972424;28;58764;-67
2023/04/09 10:17:56;;;;;;;9.07;5.10;;;;;;;;;;4977631;28;58759;-67
2023/04/09 10:20:24;;;;;;;8.73;5.60;;;;;;;;;;4976645;28;58417;-67
2023/04/09 10:22:51;;;;;;;7.90;4.97;;;;;;;;;;4969389;28;58987;-67
2023/04/09 10:25:16;;;;;;;5.43;4.50;;;;;;;;;;4969456;28;58870;-67
2023/04/09 10:27:47;;;;;;;7.07;4.13;;;;;;;;;;4980062;28;57945;-67
2023/04/09 10:30:38;;;;;;;4.75;4.20;;;;;;;;;;4968345;28;61574;-67
2023/04/09 10:33:15;;;;;;;5.47;4.95;;;;;;;;;;4973626;28;58861;-67
2023/04/09 10:35:41;;;;;;;4.70;4.30;;;;;;;;;;4969120;28;59850;-67
2023/04/09 10:38:07;;;;;;;6.80;4.85;;;;;;;;;;4976731;28;58597;-67
2023/04/09 10:40:32;;;;;;;5.50;4.15;;;;;;;;;;4975792;28;59359;-67
2023/04/09 10:42:58;;;;;;;5.03;3.90;;;;;;;;;;4971788;28;59152;-68
2023/04/09 10:45:25;;;;;;;6.47;5.05;;;;;;;;;;4971423;28;58265;-67
2023/04/09 10:47:50;;;;;;;6.03;4.60;;;;;;;;;;4976605;28;58853;-67
2023/04/09 10:50:19;;;;;;;4.90;3.97;;;;;;;;;;4975750;28;58562;-67
2023/04/09 10:52:44;;;;;;;5.78;4.85;;;;;;;;;;4973449;28;58346;-67
2023/04/09 10:55:28;;;;;;;4.97;4.17;;;;;;;;;;4974140;28;58469;-67
2023/04/09 10:57:54;;;;;;;5.78;4.68;;;;;;;;;;4971264;28;59201;-67
2023/04/09 11:00:19;;;;;;;5.47;4.53;;;;;;;;;;4975271;28;58120;-67
2023/04/09 11:02:53;;;;;;;4.43;4.00;;;;;;;;;;4971624;28;58382;-67
2023/04/09 11:05:18;;;;;;;6.60;4.10;;;;;;;;;;4976693;28;58696;-67
2023/04/09 11:08:04;;;;;;;6.60;4.57;;;;;;;;;;4970911;28;59064;-67
2023/04/09 11:10:29;;;;;;;5.15;3.90;;;;;;;;;;4961872;28;58784;-68
2023/04/09 11:12:55;;;;;;;4.72;4.20;;;;;;;;;;4975297;28;58555;-67
2023/04/09 11:15:20;;;;;;;4.63;3.80;;;;;;;;;;4976710;28;60721;-67
2023/04/09 11:17:46;;;;;;;6.50;4.05;;;;;;;;;;4974346;28;58362;-67
2023/04/09 11:20:12;;;;;;;4.72;3.92;;;;;;;;;;4972773;28;58826;-67
2023/04/09 11:22:37;;;;;;;5.80;4.65;;;;;;;;;;4976352;28;58886;-67
2023/04/09 11:25:02;;;;;;;4.67;4.27;;;;;;;;;;4981745;28;58648;-67
2023/04/09 11:27:27;;;;;;;5.60;3.70;;;;;;;;;;4979259;28;59020;-67
2023/04/09 11:29:55;;;;;;;4.90;4.27;;;;;;;;;;4972339;28;59365;-67
2023/04/09 11:32:20;;;;;;;;;;;;;;;;;;4975848;28;58447;-67
2023/04/09 11:34:46;;;;;;;5.00;3.55;;;;;;;;;;4977481;28;58410;-67
2023/04/09 11:37:15;;;;;;;4.43;4.03;;;;;;;;;;4979805;28;58731;-68
2023/04/09 11:39:42;;;;;;;4.20;3.60;;;;;;;;;;4978380;28;58877;-67
2023/04/09 11:42:12;;;;;;;4.50;3.42;;;;;;;;;;4970142;28;62885;-67
2023/04/09 11:44:37;;;;;;;4.13;3.70;;;;;;;;;;4976486;28;58396;-67
2023/04/09 11:47:03;;;;;;;4.72;3.80;;;;;;;;;;4977571;28;59255;-67
2023/04/09 11:49:28;;;;;;;4.22;3.83;;;;;;;;;;4976740;28;58539;-68
2023/04/09 11:51:53;;;;;;;4.17;3.77;;;;;;;;;;4978382;28;58434;-67
2023/04/09 11:54:18;;;;;;;3.60;3.30;;;;;;;;;;4979088;28;59712;-67
2023/04/09 11:56:43;;;;;;;5.45;3.45;;;;;;;;;;4978590;28;58649;-67
2023/04/09 11:59:09;;;;;;;3.30;3.00;;;;;;;;;;4981009;28;58231;-67
2023/04/09 12:01:34;;;;;;;6.50;4.13;;;;;;;;;;4978059;28;58710;-67
2023/04/09 12:04:00;;;;;;;4.72;3.30;;;;;;;;;;4973037;28;58766;-67
2023/04/09 12:06:26;;;;;;;4.00;3.67;;;;;;;;;;4977211;28;58401;-67
2023/04/09 12:08:52;;;;;;;3.42;3.10;;;;;;;;;;4977870;28;58279;-67
2023/04/09 12:11:17;;;;;;;7.30;3.70;;;;;;;;;;4977485;28;58673;-67
2023/04/09 12:13:43;;;;;;;3.93;3.30;;;;;;;;;;4967232;28;59093;-67
2023/04/09 12:16:09;;;;;;;3.30;2.97;;;;;;;;;;4980242;28;58482;-67
2023/04/09 12:18:35;;;;;;;3.28;2.97;;;;;;;;;;4979188;28;58690;-67
2023/04/09 12:21:01;;;;;;;3.45;2.72;;;;;;;;;;4976368;28;59185;-67
2023/04/09 12:23:26;;;;;;;4.10;3.63;;;;;;;;;;4967893;28;58228;-67
2023/04/09 12:25:53;;;;;;;3.97;3.30;;;;;;;;;;4974743;28;58398;-67
2023/04/09 12:28:18;;;;;;;4.05;3.05;;;;;;;;;;4978746;28;58391;-67
2023/04/09 12:30:43;;;;;;;3.50;3.15;;;;;;;;;;4979209;28;58290;-67
2023/04/09 12:33:08;;;;;;;3.10;2.80;;;;;;;;;;4980587;28;58771;-66
2023/04/09 12:35:34;;;;;;;3.70;3.30;;;;;;;;;;4971920;28;58761;-67
2023/04/09 12:37:59;;;;;;;3.60;3.22;;;;;;;;;;4977080;28;58693;-67
2023/04/09 12:40:25;;;;;;;2.67;2.47;;;;;;;;;;4976359;28;59101;-67
2023/04/09 12:42:50;;;;;;;3.03;2.72;;;;;;;;;;4976851;28;58366;-67
2023/04/09 12:45:16;;;;;;;4.22;3.83;;;;;;;;;;4973457;28;58360;-67
2023/04/09 12:47:42;;;;;;;3.55;3.25;;;;;;;;;;4976754;28;58441;-67
2023/04/09 12:50:09;;;;;;;3.42;2.80;;;;;;;;;;4978490;28;58646;-67
2023/04/09 12:52:34;;;;;;;3.33;2.97;;;;;;;;;;4976568;28;59925;-67
2023/04/09 12:54:59;;;;;;;7.47;2.80;;;;;;;;;;4974711;28;58723;-67
2023/04/09 12:57:25;;;;;;;3.40;2.80;;;;;;;;;;4966521;28;58665;-67
2023/04/09 12:59:50;;;;;;;3.47;2.87;;;;;;;;;;4972623;28;59384;-67
2023/04/09 13:02:15;;;;;;;3.00;2.50;;;;;;;;;;4978392;28;58883;-67
2023/04/09 13:04:41;;;;;;;3.43;3.13;;;;;;;;;;4976440;28;59054;-67
2023/04/09 13:07:06;;;;;;;5.00;3.45;;;;;;;;;;4973928;28;58801;-67
2023/04/09 13:09:31;;;;;;;2.85;2.53;;;;;;;;;;4965388;28;58494;-67
2023/04/09 13:11:57;;;;;;;3.73;3.17;;;;;;;;;;4966849;28;58521;-66
2023/04/09 13:14:22;;;;;;;2.78;2.45;;;;;;;;;;4964672;28;58519;-66
2023/04/09 13:16:48;;;;;;;2.67;2.47;;;;;;;;;;4962410;28;58846;-65
2023/04/09 13:19:13;;;;;;;4.05;2.75;;;;;;;;;;4965200;28;58396;-65
2023/04/09 13:21:39;;;;;;;4.30;3.53;;;;;;;;;;4965942;28;58149;-65
2023/04/09 13:24:04;;;;;;;2.60;2.40;;;;;;;;;;4968760;28;58589;-65
2023/04/09 13:26:30;;;;;;;3.33;3.10;;;;;;;;;;4967948;28;58518;-65
2023/04/09 13:28:55;;;;;;;5.63;3.13;;;;;;;;;;4971548;28;58383;-66
2023/04/09 13:31:20;;;;;;;3.10;2.80;;;;;;;;;;4970095;28;58228;-65
2023/04/09 13:33:45;;;;;;;3.00;2.70;;;;;;;;;;4968055;28;58621;-65
2023/04/09 13:36:11;;;;;;;3.00;2.75;;;;;;;;;;4967182;28;58661;-65
2023/04/09 13:38:36;;;;;;;4.33;3.43;;;;;;;;;;4969816;28;58308;-65
2023/04/09 13:41:01;;;;;;;2.47;2.27;;;;;;;;;;4971218;28;58750;-65
2023/04/09 13:43:28;;;;;;;3.10;2.80;;;;;;;;;;4964601;28;58426;-65
2023/04/09 13:45:53;;;;;;;4.40;3.05;;;;;;;;;;4965487;28;58454;-65
2023/04/09 13:48:19;;;;;;;2.63;2.42;;;;;;;;;;4962793;28;58537;-65
2023/04/09 13:50:44;;;;;;;3.72;2.53;;;;;;;;;;4965999;28;59751;-65
2023/04/09 13:53:10;;;;;;;3.03;2.73;;;;;;;;;;4964766;28;58336;-65
2023/04/09 13:55:35;;;;;;;2.70;2.50;;;;;;;;;;4965349;28;58287;-65
2023/04/09 13:58:00;;;;;;;2.60;2.40;;;;;;;;;;4963877;28;58633;-65
2023/04/09 14:00:26;;;;;;;2.63;2.42;;;;;;;;;;4968324;28;58439;-65
2023/04/09 14:02:51;;;;;;;2.90;2.70;;;;;;;;;;4964856;28;58381;-65
2023/04/09 14:05:16;;;;;;;2.47;2.27;;;;;;;;;;4968407;28;58894;-65
2023/04/09 14:07:42;;;;;;;3.10;2.90;;;;;;;;;;4964579;28;58190;-65
2023/04/09 14:10:07;;;;;;;2.95;2.75;;;;;;;;;;4967341;28;59884;-65
2023/04/09 14:12:32;;;;;;;2.65;2.40;;;;;;;;;;4969541;28;58531;-65
2023/04/09 14:14:57;;;;;;;3.25;2.88;;;;;;;;;;4968202;28;58700;-65
2023/04/09 14:17:22;;;;;;;3.03;2.72;;;;;;;;;;4967147;28;58861;-65
2023/04/09 14:19:47;;;;;;;2.90;2.63;;;;;;;;;;4969219;28;58510;-65
2023/04/09 14:22:13;;;;;;;2.45;2.25;;;;;;;;;;4970048;28;58433;-65
2023/04/09 14:24:41;;;;;;;2.53;2.33;;;;;;;;;;4969897;28;59040;-65
2023/04/09 14:27:06;;;;;;;3.45;2.58;;;;;;;;;;4966956;28;58885;-65
2023/04/09 14:29:31;;;;;;;2.47;2.28;;;;;;;;;;4965268;28;58229;-65
2023/04/09 14:31:57;;;;;;;2.15;1.95;;;;;;;;;;4964594;28;58514;-65
2023/04/09 14:34:22;;;;;;;2.57;2.27;;;;;;;;;;4964898;28;58256;-65
2023/04/09 14:36:47;;;;;;;2.57;2.37;;;;;;;;;;4962687;28;58547;-65